Terminal Aerodrome Forecast
Issued by NWS Charleston, WV

Current Version | Previous Version | Text Only | Print | Product List | Glossary On
Versions: 1 2 3 4 5 6 7 8 9 10 11 12 13 14 15 16 17 18 19 20 21 22 23 24
121
FTUS41 KRLX 301731 CCB
TAFBKW
TAF COR
KBKW 301731Z 3018/3118 15013G23KT P6SM BKN015
     FM310200 14010G17KT P6SM BKN015
     FM310600 14011G19KT 6SM SHRA OVC015
     FM310800 15010G17KT 3SM SHRA OVC015
     FM311200 15009KT 3SM SHRA OVC008=

USA.gov is the U.S. government's official web portal to all federal, state and local government web resources and services.